Flight Track Log - Related Links

Times and Time Zones

All times are in EST time to prevent confusion due to time zone crossing. See the TAM3441 flight status page for this flight to view local times or setup timezone preferences in your user account.

Time Position Orientation Groundspeed Altitude Reporting Facility
EST Latitude Longitude Course Direction KTS MPH feet Rate Location/Type
Mon 03:24:00 AM -21.0427 -44.8785 211° Southwest  Level Estimated
Mon 03:25:00 AM -21.0948 -44.9125 211° Southwest  Level Estimated
Mon 03:26:00 AM -21.1469 -44.9466 211° Southwest  Level Estimated
Mon 03:27:00 AM -21.1989 -44.9806 211° Southwest  Level Estimated
Mon 03:28:00 AM -21.2510 -45.0147 211° Southwest  Level Estimated
Mon 03:29:00 AM -21.3031 -45.0488 211° Southwest  Level Estimated
Mon 03:30:00 AM -21.3551 -45.0830 211° Southwest  Level Estimated
Mon 03:31:00 AM -21.4072 -45.1171 211° Southwest  Level Estimated
Mon 03:32:00 AM -21.4592 -45.1513 211° Southwest  Level Estimated
Mon 03:33:00 AM -21.5113 -45.1855 211° Southwest  Level Estimated
Mon 03:34:00 AM -21.5633 -45.2197 211° Southwest  Level Estimated
Mon 03:35:00 AM -21.6153 -45.2540 211° Southwest  Level Estimated
Mon 03:36:00 AM -21.6673 -45.2883 211° Southwest  Level Estimated
Mon 03:37:00 AM -21.7193 -45.3226 211° Southwest  Level Estimated
Mon 03:38:00 AM -21.7713 -45.3569 212° Southwest  Level Estimated
Mon 03:39:00 AM -21.8233 -45.3913 212° Southwest  Level Estimated
Mon 03:40:00 AM -21.8753 -45.4257 212° Southwest  Level Estimated
Mon 03:41:00 AM -21.9273 -45.4601 212° Southwest  Level Estimated
Mon 03:42:00 AM -21.9793 -45.4945 212° Southwest  Level Estimated
Mon 03:43:00 AM -22.0312 -45.5289 212° Southwest  Level Estimated
Mon 03:44:00 AM -22.0832 -45.5634 212° Southwest  Level Estimated
Mon 03:45:00 AM -22.1351 -45.5979 212° Southwest  Level Estimated
Mon 03:46:00 AM -22.1871 -45.6325 212° Southwest  Level Estimated
Mon 03:47:00 AM -22.2390 -45.6670 212° Southwest  Level Estimated
Mon 03:48:00 AM -22.2910 -45.7016 212° Southwest  Level Estimated
Mon 03:49:00 AM -22.3429 -45.7362 212° Southwest  Level Estimated
Mon 03:50:00 AM -22.3948 -45.7709 212° Southwest  Level Estimated
Mon 03:51:00 AM -22.4467 -45.8055 212° Southwest  Level Estimated
Mon 03:52:00 AM -22.4986 -45.8402 212° Southwest  Level Estimated
Mon 03:53:00 AM -22.5505 -45.8749 212° Southwest  Level Estimated
Mon 03:54:00 AM -22.6024 -45.9097 212° Southwest  Level Estimated
Mon 03:55:00 AM -22.6542 -45.9444 212° Southwest  Level Estimated
Mon 03:56:00 AM -22.7061 -45.9792 212° Southwest  Level Estimated
Mon 03:57:00 AM -22.7580 -46.0140 212° Southwest  Level Estimated
Mon 03:58:00 AM -22.8098 -46.0489 212° Southwest  Level Estimated
Mon 03:59:00 AM -22.8617 -46.0838 212° Southwest  Level Estimated
Mon 04:00:00 AM -22.9135 -46.1186 212° Southwest  Level Estimated
Mon 04:01:00 AM -22.9653 -46.1536 212° Southwest  Level Estimated
Mon 04:02:00 AM -23.0172 -46.1885 212° Southwest  Level Estimated
Mon 04:03:00 AM -23.0690 -46.2235 212° Southwest  Level Estimated
Mon 04:04:00 AM -23.1208 -46.2585 212° Southwest  Level Estimated
Mon 04:05:00 AM -23.1726 -46.2935 212° Southwest  Level Estimated
Mon 04:06:00 AM -23.2244 -46.3286 212° Southwest  Level Estimated
Mon 04:07:00 AM -23.2762 -46.3637 212° Southwest  Level Estimated
Mon 04:08:00 AM -23.3279 -46.3988 212° Southwest  Level Estimated
Mon 04:09:00 AM -23.3797 -46.4339 212° Southwest  Level Estimated
Mon 04:10:00 AM -23.4315 -46.4691 212° Southwest  Level Estimated
Mon 04:11:00 AM -23.4321 -46.4695 212° Southwest  Level Estimated
Mon 04:12:00 AM -23.4321 -46.4695 350° North  Level Estimated
Mon 04:13:00 AM -23.4321 -46.4695 350° North  Level Estimated
Mon 04:14:00 AM -23.4321 -46.4695 350° North  Level Estimated
Mon 04:15:00 AM -23.4321 -46.4695 350° North  Level Estimated
Mon 04:16:00 AM -23.4321 -46.4695 350° North  Level Estimated
Mon 04:17:00 AM -23.4321 -46.4695 350° North  Level Estimated
Mon 04:18:00 AM -23.4321 -46.4695 350° North  Level Estimated
Mon 04:19:00 AM -23.4321 -46.4695 350° North  Level Estimated
Mon 04:20:00 AM -23.4321 -46.4695 350° North  Level Estimated

Login

Don't have an account? Register now (free) for customized features, flight alerts, and more!